Chepachet, RI (02814)

3:45 AM EDT on September 02, 2015 (GMT -0400)
Route 44 Chepachet RI | | Change Station
CLOSE
Current Station
Personal Weather Station
Location: Glocester, RI
Elevation: 495 ft
Nearby Weather Stations

Elev 495 ft 41.92 °N, 71.71 °W | Updated 7 minutes ago

Clear
Clear
60.8 °F
Feels Like 60.8 °F
N
0.0
Wind Variable Wind from SSW

Today
High -- | Low -- °F
--% Chance of Precip.
Yesterday
High -- | Low -- °F
Precip. -- in
6:13 AM 7:19 PM
Waning Gibbous, 82% visible
Pressure 30.03 in
Visibility 4.0 miles
Clouds Clear
Dew Point 60 °F
Humidity 99%
Rainfall 0.00 in
Snow Depth Not available.
UV 0 out of 12
Pollen 9.00 out of 12
Air Quality Not available.
Flu Activity Not available.
METAR KSFZ 020735Z AUTO 23003KT 4SM CLR 17/17 A3003 RMK AO1
Pressure 30.03 in
Visibility 4.0 miles
Clouds Clear
Dew Point 60 °F
Humidity 99%
Rainfall 0.00 in
Snow Depth Not available.
UV 0 out of 12
Pollen 9.00 out of 12
Air Quality Not available.
Flu Activity Not available.
METAR KSFZ 020735Z AUTO 23003KT 4SM CLR 17/17 A3003 RMK AO1

10-Day Weather Forecast

×

Almanac

Astronomy

Sep. 02, 2015 Rise Set
Actual Time
Civil Twilight
Nautical Twilight
Astronomical Twilight
Moon
Length of Visible Light
Length of Day
Tomorrow will be .
, % of the Moon is Illuminated

Today's Extremes

State Highs State Lows

Community

WunderPhotos

Upload Photos

1,851,723 photos uploaded!

WunderBlogs® & News

Nearby

Air Quality

  Air Quality AQ Index Pollutant
Not available.

Snow Depth

Station Depth Elevation

Earthquake Activity

City Distance Mag. Time & Date
Minimum magnitude displayed is 2.5.

Coastal Water Temperatures

Place Temperature

Stations

Nearby Weather Stations

Station Location Temp. Windchill Dew Point Humidity Wind Precip. Elev Updated Type